sensor_id;sensor_type;location;lat;lon;timestamp;temperature;humidity
15355;DHT22;7777;52.254;9.618;2023-05-10T00:00:08;14.20;95.50
15355;DHT22;7777;52.254;9.618;2023-05-10T00:02:35;14.20;95.70
15355;DHT22;7777;52.254;9.618;2023-05-10T00:05:01;14.20;95.40
15355;DHT22;7777;52.254;9.618;2023-05-10T00:07:27;14.10;95.60
15355;DHT22;7777;52.254;9.618;2023-05-10T00:09:53;14.10;95.70
15355;DHT22;7777;52.254;9.618;2023-05-10T00:12:19;14.10;94.80
15355;DHT22;7777;52.254;9.618;2023-05-10T00:14:44;14.10;95.20
15355;DHT22;7777;52.254;9.618;2023-05-10T00:17:10;14.10;95.70
15355;DHT22;7777;52.254;9.618;2023-05-10T00:19:36;14.10;95.50
15355;DHT22;7777;52.254;9.618;2023-05-10T00:22:02;14.10;94.90
15355;DHT22;7777;52.254;9.618;2023-05-10T00:24:28;14.00;95.80
15355;DHT22;7777;52.254;9.618;2023-05-10T00:26:54;14.00;95.20
15355;DHT22;7777;52.254;9.618;2023-05-10T00:29:19;14.00;95.80
15355;DHT22;7777;52.254;9.618;2023-05-10T00:31:45;13.90;95.30
15355;DHT22;7777;52.254;9.618;2023-05-10T00:34:11;13.90;95.10
15355;DHT22;7777;52.254;9.618;2023-05-10T00:36:37;13.80;95.10
15355;DHT22;7777;52.254;9.618;2023-05-10T00:39:03;13.90;94.50
15355;DHT22;7777;52.254;9.618;2023-05-10T00:41:29;13.90;94.40
15355;DHT22;7777;52.254;9.618;2023-05-10T00:43:58;13.90;94.30
15355;DHT22;7777;52.254;9.618;2023-05-10T00:46:23;13.90;94.30
15355;DHT22;7777;52.254;9.618;2023-05-10T00:48:50;13.90;94.60
15355;DHT22;7777;52.254;9.618;2023-05-10T00:51:16;13.90;94.20
15355;DHT22;7777;52.254;9.618;2023-05-10T00:53:43;13.90;93.90
15355;DHT22;7777;52.254;9.618;2023-05-10T00:56:11;13.90;94.20
15355;DHT22;7777;52.254;9.618;2023-05-10T00:58:40;13.90;94.40
15355;DHT22;7777;52.254;9.618;2023-05-10T01:01:06;13.90;94.70
15355;DHT22;7777;52.254;9.618;2023-05-10T01:03:32;13.80;94.80
15355;DHT22;7777;52.254;9.618;2023-05-10T01:05:58;13.80;94.90
15355;DHT22;7777;52.254;9.618;2023-05-10T01:08:24;13.70;94.90
15355;DHT22;7777;52.254;9.618;2023-05-10T01:10:51;13.70;95.00
15355;DHT22;7777;52.254;9.618;2023-05-10T01:13:41;13.70;94.90
15355;DHT22;7777;52.254;9.618;2023-05-10T01:16:08;13.70;94.70
15355;DHT22;7777;52.254;9.618;2023-05-10T01:18:37;13.80;94.70
15355;DHT22;7777;52.254;9.618;2023-05-10T01:21:14;13.80;94.30
15355;DHT22;7777;52.254;9.618;2023-05-10T01:35:43;14.00;94.00
15355;DHT22;7777;52.254;9.618;2023-05-10T01:38:21;14.10;94.00
15355;DHT22;7777;52.254;9.618;2023-05-10T01:47:09;14.20;93.90
15355;DHT22;7777;52.254;9.618;2023-05-10T01:49:43;14.20;93.90
15355;DHT22;7777;52.254;9.618;2023-05-10T01:52:18;14.20;93.80
15355;DHT22;7777;52.254;9.618;2023-05-10T01:54:53;14.20;94.00
15355;DHT22;7777;52.254;9.618;2023-05-10T01:57:22;14.30;93.80
15355;DHT22;7777;52.254;9.618;2023-05-10T01:59:52;14.30;93.80
15355;DHT22;7777;52.254;9.618;2023-05-10T02:02:21;14.30;93.70
15355;DHT22;7777;52.254;9.618;2023-05-10T02:04:47;14.40;93.80
15355;DHT22;7777;52.254;9.618;2023-05-10T02:07:15;14.40;93.80
15355;DHT22;7777;52.254;9.618;2023-05-10T02:09:44;14.40;93.80
15355;DHT22;7777;52.254;9.618;2023-05-10T02:12:13;14.40;93.80
15355;DHT22;7777;52.254;9.618;2023-05-10T02:14:41;14.40;94.30
15355;DHT22;7777;52.254;9.618;2023-05-10T02:17:08;14.40;94.40
15355;DHT22;7777;52.254;9.618;2023-05-10T02:19:36;14.50;94.20
15355;DHT22;7777;52.254;9.618;2023-05-10T02:22:04;14.50;94.10
15355;DHT22;7777;52.254;9.618;2023-05-10T02:24:32;14.50;94.50
15355;DHT22;7777;52.254;9.618;2023-05-10T02:26:59;14.50;94.40
15355;DHT22;7777;52.254;9.618;2023-05-10T02:29:27;14.50;95.00
15355;DHT22;7777;52.254;9.618;2023-05-10T02:31:54;14.50;95.00
15355;DHT22;7777;52.254;9.618;2023-05-10T02:34:22;14.50;95.60
15355;DHT22;7777;52.254;9.618;2023-05-10T02:36:50;14.50;96.10
15355;DHT22;7777;52.254;9.618;2023-05-10T02:39:18;14.50;95.00
15355;DHT22;7777;52.254;9.618;2023-05-10T02:41:45;14.50;96.50
15355;DHT22;7777;52.254;9.618;2023-05-10T02:44:15;14.50;96.20
15355;DHT22;7777;52.254;9.618;2023-05-10T02:46:43;14.50;95.40
15355;DHT22;7777;52.254;9.618;2023-05-10T02:49:09;14.50;95.70
15355;DHT22;7777;52.254;9.618;2023-05-10T02:51:37;14.50;95.80
15355;DHT22;7777;52.254;9.618;2023-05-10T02:54:12;14.50;96.10
15355;DHT22;7777;52.254;9.618;2023-05-10T02:56:47;14.50;95.80
15355;DHT22;7777;52.254;9.618;2023-05-10T02:59:16;14.40;96.00
15355;DHT22;7777;52.254;9.618;2023-05-10T03:01:42;14.40;96.20
15355;DHT22;7777;52.254;9.618;2023-05-10T03:04:08;14.40;96.50
15355;DHT22;7777;52.254;9.618;2023-05-10T03:06:34;14.40;96.00
15355;DHT22;7777;52.254;9.618;2023-05-10T03:09:05;14.30;96.30
15355;DHT22;7777;52.254;9.618;2023-05-10T03:14:49;14.30;95.90
15355;DHT22;7777;52.254;9.618;2023-05-10T03:20:20;14.30;96.00
15355;DHT22;7777;52.254;9.618;2023-05-10T03:22:53;14.30;95.50
15355;DHT22;7777;52.254;9.618;2023-05-10T03:25:21;14.30;96.00
15355;DHT22;7777;52.254;9.618;2023-05-10T03:27:49;14.30;95.30
15355;DHT22;7777;52.254;9.618;2023-05-10T03:30:16;14.30;95.80
15355;DHT22;7777;52.254;9.618;2023-05-10T03:32:42;14.40;95.90
15355;DHT22;7777;52.254;9.618;2023-05-10T03:35:09;14.40;95.30
15355;DHT22;7777;52.254;9.618;2023-05-10T03:37:35;14.40;95.20
15355;DHT22;7777;52.254;9.618;2023-05-10T03:40:02;14.40;95.10
15355;DHT22;7777;52.254;9.618;2023-05-10T03:42:28;14.50;95.20
15355;DHT22;7777;52.254;9.618;2023-05-10T03:44:54;14.50;95.40
15355;DHT22;7777;52.254;9.618;2023-05-10T03:47:19;14.50;95.10
15355;DHT22;7777;52.254;9.618;2023-05-10T03:49:45;14.50;95.20
15355;DHT22;7777;52.254;9.618;2023-05-10T03:52:11;14.50;95.20
15355;DHT22;7777;52.254;9.618;2023-05-10T03:54:37;14.50;95.20
15355;DHT22;7777;52.254;9.618;2023-05-10T03:57:05;14.50;95.10
15355;DHT22;7777;52.254;9.618;2023-05-10T03:59:31;14.50;95.50
15355;DHT22;7777;52.254;9.618;2023-05-10T04:01:56;14.60;95.00
15355;DHT22;7777;52.254;9.618;2023-05-10T04:04:22;14.60;95.00
15355;DHT22;7777;52.254;9.618;2023-05-10T04:06:48;14.50;95.90
15355;DHT22;7777;52.254;9.618;2023-05-10T04:09:14;14.50;96.60
15355;DHT22;7777;52.254;9.618;2023-05-10T04:11:53;14.50;95.60
15355;DHT22;7777;52.254;9.618;2023-05-10T04:14:29;14.60;95.50
15355;DHT22;7777;52.254;9.618;2023-05-10T04:17:04;14.60;97.30
15355;DHT22;7777;52.254;9.618;2023-05-10T04:19:30;14.60;96.30
15355;DHT22;7777;52.254;9.618;2023-05-10T04:21:56;14.60;98.00
15355;DHT22;7777;52.254;9.618;2023-05-10T04:24:23;14.50;98.50
15355;DHT22;7777;52.254;9.618;2023-05-10T04:26:48;14.50;98.30
15355;DHT22;7777;52.254;9.618;2023-05-10T04:29:14;14.50;98.90
15355;DHT22;7777;52.254;9.618;2023-05-10T04:31:40;14.50;99.70
15355;DHT22;7777;52.254;9.618;2023-05-10T04:34:06;14.50;99.90
15355;DHT22;7777;52.254;9.618;2023-05-10T04:36:32;14.40;99.90
15355;DHT22;7777;52.254;9.618;2023-05-10T04:39:02;14.40;99.90
15355;DHT22;7777;52.254;9.618;2023-05-10T04:41:28;14.30;99.90
15355;DHT22;7777;52.254;9.618;2023-05-10T04:43:54;14.30;99.90
15355;DHT22;7777;52.254;9.618;2023-05-10T04:46:20;14.30;99.90
15355;DHT22;7777;52.254;9.618;2023-05-10T04:48:46;14.20;99.90
15355;DHT22;7777;52.254;9.618;2023-05-10T04:51:12;14.20;99.90
15355;DHT22;7777;52.254;9.618;2023-05-10T04:53:38;14.20;99.90
15355;DHT22;7777;52.254;9.618;2023-05-10T04:56:04;14.20;99.90
15355;DHT22;7777;52.254;9.618;2023-05-10T04:58:30;14.20;99.90
15355;DHT22;7777;52.254;9.618;2023-05-10T05:00:55;14.10;99.90
15355;DHT22;7777;52.254;9.618;2023-05-10T05:03:21;14.10;99.90
15355;DHT22;7777;52.254;9.618;2023-05-10T05:05:47;14.10;99.90
15355;DHT22;7777;52.254;9.618;2023-05-10T05:08:14;14.10;99.90
15355;DHT22;7777;52.254;9.618;2023-05-10T05:10:39;14.10;99.90
15355;DHT22;7777;52.254;9.618;2023-05-10T05:13:05;14.10;99.90
15355;DHT22;7777;52.254;9.618;2023-05-10T05:15:31;14.10;99.90
15355;DHT22;7777;52.254;9.618;2023-05-10T05:18:00;14.10;99.90
15355;DHT22;7777;52.254;9.618;2023-05-10T05:20:25;14.10;99.90
15355;DHT22;7777;52.254;9.618;2023-05-10T05:22:51;14.10;99.90
15355;DHT22;7777;52.254;9.618;2023-05-10T05:25:17;14.10;99.90
15355;DHT22;7777;52.254;9.618;2023-05-10T05:27:42;14.10;99.90
15355;DHT22;7777;52.254;9.618;2023-05-10T05:30:09;14.10;99.90
15355;DHT22;7777;52.254;9.618;2023-05-10T05:32:35;14.10;99.90
15355;DHT22;7777;52.254;9.618;2023-05-10T05:35:00;14.00;99.90
15355;DHT22;7777;52.254;9.618;2023-05-10T05:37:26;14.00;99.90
15355;DHT22;7777;52.254;9.618;2023-05-10T05:39:52;14.00;99.90
15355;DHT22;7777;52.254;9.618;2023-05-10T05:42:17;14.00;99.90
15355;DHT22;7777;52.254;9.618;2023-05-10T05:44:44;14.00;99.90
15355;DHT22;7777;52.254;9.618;2023-05-10T05:47:10;13.90;99.90
15355;DHT22;7777;52.254;9.618;2023-05-10T05:49:36;13.90;99.90
15355;DHT22;7777;52.254;9.618;2023-05-10T05:52:03;14.00;99.90
15355;DHT22;7777;52.254;9.618;2023-05-10T05:54:30;13.90;99.90
15355;DHT22;7777;52.254;9.618;2023-05-10T05:56:57;14.00;99.90
15355;DHT22;7777;52.254;9.618;2023-05-10T05:59:24;14.00;99.90
15355;DHT22;7777;52.254;9.618;2023-05-10T06:01:50;14.00;99.90
15355;DHT22;7777;52.254;9.618;2023-05-10T06:04:16;14.00;99.90
15355;DHT22;7777;52.254;9.618;2023-05-10T06:06:42;14.00;99.90
15355;DHT22;7777;52.254;9.618;2023-05-10T06:09:08;14.00;99.90
15355;DHT22;7777;52.254;9.618;2023-05-10T06:11:35;14.00;99.90
15355;DHT22;7777;52.254;9.618;2023-05-10T06:14:02;14.00;99.90
15355;DHT22;7777;52.254;9.618;2023-05-10T06:16:30;14.00;99.90
15355;DHT22;7777;52.254;9.618;2023-05-10T06:18:56;14.00;99.90
15355;DHT22;7777;52.254;9.618;2023-05-10T06:21:22;14.10;99.90
15355;DHT22;7777;52.254;9.618;2023-05-10T06:23:47;14.10;99.90
15355;DHT22;7777;52.254;9.618;2023-05-10T06:26:13;14.10;99.90
15355;DHT22;7777;52.254;9.618;2023-05-10T06:28:39;14.10;99.90
15355;DHT22;7777;52.254;9.618;2023-05-10T06:31:05;14.20;99.90
15355;DHT22;7777;52.254;9.618;2023-05-10T06:33:32;14.20;99.90
15355;DHT22;7777;52.254;9.618;2023-05-10T06:35:58;14.20;99.90
15355;DHT22;7777;52.254;9.618;2023-05-10T06:38:24;14.20;99.90
15355;DHT22;7777;52.254;9.618;2023-05-10T06:40:50;14.20;99.90
15355;DHT22;7777;52.254;9.618;2023-05-10T06:43:15;14.20;99.90
15355;DHT22;7777;52.254;9.618;2023-05-10T06:45:41;14.20;99.90
15355;DHT22;7777;52.254;9.618;2023-05-10T06:48:07;14.30;99.90
15355;DHT22;7777;52.254;9.618;2023-05-10T06:50:33;14.30;99.90
15355;DHT22;7777;52.254;9.618;2023-05-10T06:53:00;14.30;99.90
15355;DHT22;7777;52.254;9.618;2023-05-10T06:55:27;14.30;99.90
15355;DHT22;7777;52.254;9.618;2023-05-10T06:57:53;14.40;99.90
15355;DHT22;7777;52.254;9.618;2023-05-10T07:00:19;14.50;99.90
15355;DHT22;7777;52.254;9.618;2023-05-10T07:02:45;14.50;99.90
15355;DHT22;7777;52.254;9.618;2023-05-10T07:05:12;14.50;99.90
15355;DHT22;7777;52.254;9.618;2023-05-10T07:07:38;14.50;99.90
15355;DHT22;7777;52.254;9.618;2023-05-10T07:10:04;14.50;99.90
15355;DHT22;7777;52.254;9.618;2023-05-10T07:12:30;14.60;99.90
15355;DHT22;7777;52.254;9.618;2023-05-10T07:14:56;14.60;99.90
15355;DHT22;7777;52.254;9.618;2023-05-10T07:17:21;14.60;99.90
15355;DHT22;7777;52.254;9.618;2023-05-10T07:19:47;14.60;99.90
15355;DHT22;7777;52.254;9.618;2023-05-10T07:22:14;14.60;99.90
15355;DHT22;7777;52.254;9.618;2023-05-10T07:24:40;14.60;99.90
15355;DHT22;7777;52.254;9.618;2023-05-10T07:27:06;14.60;99.90
15355;DHT22;7777;52.254;9.618;2023-05-10T07:29:33;14.70;99.90
15355;DHT22;7777;52.254;9.618;2023-05-10T07:31:58;14.70;99.90
15355;DHT22;7777;52.254;9.618;2023-05-10T07:34:24;14.70;99.90
15355;DHT22;7777;52.254;9.618;2023-05-10T07:36:51;14.70;99.90
15355;DHT22;7777;52.254;9.618;2023-05-10T07:39:17;14.70;99.90
15355;DHT22;7777;52.254;9.618;2023-05-10T07:41:42;14.70;99.90
15355;DHT22;7777;52.254;9.618;2023-05-10T07:44:08;14.70;99.90
15355;DHT22;7777;52.254;9.618;2023-05-10T07:46:34;14.80;99.90
15355;DHT22;7777;52.254;9.618;2023-05-10T07:49:00;14.80;99.90
15355;DHT22;7777;52.254;9.618;2023-05-10T07:51:26;14.80;99.90
15355;DHT22;7777;52.254;9.618;2023-05-10T07:53:53;14.80;99.90
15355;DHT22;7777;52.254;9.618;2023-05-10T07:56:26;14.80;99.90
15355;DHT22;7777;52.254;9.618;2023-05-10T07:58:58;14.90;99.90
15355;DHT22;7777;52.254;9.618;2023-05-10T08:01:25;14.90;99.90
15355;DHT22;7777;52.254;9.618;2023-05-10T08:03:51;14.90;99.90
15355;DHT22;7777;52.254;9.618;2023-05-10T08:06:19;14.90;99.90
15355;DHT22;7777;52.254;9.618;2023-05-10T08:08:46;14.90;99.90
15355;DHT22;7777;52.254;9.618;2023-05-10T08:11:18;15.00;99.90
15355;DHT22;7777;52.254;9.618;2023-05-10T08:13:45;15.00;99.90
15355;DHT22;7777;52.254;9.618;2023-05-10T08:16:11;15.10;99.90
15355;DHT22;7777;52.254;9.618;2023-05-10T08:18:37;15.10;99.90
15355;DHT22;7777;52.254;9.618;2023-05-10T08:21:03;15.00;99.90
15355;DHT22;7777;52.254;9.618;2023-05-10T08:23:29;15.10;99.90
15355;DHT22;7777;52.254;9.618;2023-05-10T08:25:55;15.10;99.90
15355;DHT22;7777;52.254;9.618;2023-05-10T08:28:21;15.10;99.90
15355;DHT22;7777;52.254;9.618;2023-05-10T08:30:46;15.10;99.90
15355;DHT22;7777;52.254;9.618;2023-05-10T08:33:12;15.20;99.90
15355;DHT22;7777;52.254;9.618;2023-05-10T08:35:38;15.20;99.90
15355;DHT22;7777;52.254;9.618;2023-05-10T08:38:04;15.20;99.90
15355;DHT22;7777;52.254;9.618;2023-05-10T08:40:29;15.20;99.90
15355;DHT22;7777;52.254;9.618;2023-05-10T08:43:05;15.20;99.90
15355;DHT22;7777;52.254;9.618;2023-05-10T08:45:40;15.20;99.90
15355;DHT22;7777;52.254;9.618;2023-05-10T08:48:08;15.30;99.90
15355;DHT22;7777;52.254;9.618;2023-05-10T08:50:42;15.30;99.90
15355;DHT22;7777;52.254;9.618;2023-05-10T08:53:12;15.30;99.90
15355;DHT22;7777;52.254;9.618;2023-05-10T08:55:39;15.40;99.90
15355;DHT22;7777;52.254;9.618;2023-05-10T08:58:08;15.30;99.90
15355;DHT22;7777;52.254;9.618;2023-05-10T09:00:35;15.40;99.90
15355;DHT22;7777;52.254;9.618;2023-05-10T09:03:03;15.40;99.90
15355;DHT22;7777;52.254;9.618;2023-05-10T09:05:30;15.40;99.90
15355;DHT22;7777;52.254;9.618;2023-05-10T09:07:55;15.40;99.90
15355;DHT22;7777;52.254;9.618;2023-05-10T09:10:22;15.40;99.90
15355;DHT22;7777;52.254;9.618;2023-05-10T09:12:51;15.40;99.90
15355;DHT22;7777;52.254;9.618;2023-05-10T09:15:17;15.40;99.90
15355;DHT22;7777;52.254;9.618;2023-05-10T09:17:45;15.40;99.90
15355;DHT22;7777;52.254;9.618;2023-05-10T09:20:11;15.50;99.90
15355;DHT22;7777;52.254;9.618;2023-05-10T09:22:37;15.50;99.90
15355;DHT22;7777;52.254;9.618;2023-05-10T09:25:15;15.50;99.90
15355;DHT22;7777;52.254;9.618;2023-05-10T09:27:45;15.50;99.90
15355;DHT22;7777;52.254;9.618;2023-05-10T09:30:27;15.50;99.90
15355;DHT22;7777;52.254;9.618;2023-05-10T09:32:57;15.50;99.90
15355;DHT22;7777;52.254;9.618;2023-05-10T09:35:26;15.50;99.90
15355;DHT22;7777;52.254;9.618;2023-05-10T09:37:55;15.50;99.90
15355;DHT22;7777;52.254;9.618;2023-05-10T09:40:27;15.50;99.90
15355;DHT22;7777;52.254;9.618;2023-05-10T09:43:06;15.50;99.90
15355;DHT22;7777;52.254;9.618;2023-05-10T09:45:34;15.50;99.90
15355;DHT22;7777;52.254;9.618;2023-05-10T09:48:01;15.60;99.90
15355;DHT22;7777;52.254;9.618;2023-05-10T09:50:28;15.60;99.90
15355;DHT22;7777;52.254;9.618;2023-05-10T09:52:57;15.60;99.90
15355;DHT22;7777;52.254;9.618;2023-05-10T09:55:26;15.60;99.90
15355;DHT22;7777;52.254;9.618;2023-05-10T09:58:04;15.60;99.90
15355;DHT22;7777;52.254;9.618;2023-05-10T10:00:36;15.60;99.90
15355;DHT22;7777;52.254;9.618;2023-05-10T10:03:03;15.60;99.90
15355;DHT22;7777;52.254;9.618;2023-05-10T10:05:34;15.70;99.90
15355;DHT22;7777;52.254;9.618;2023-05-10T10:08:03;15.70;99.90
15355;DHT22;7777;52.254;9.618;2023-05-10T10:10:31;15.70;99.90
15355;DHT22;7777;52.254;9.618;2023-05-10T10:12:58;15.80;99.90
15355;DHT22;7777;52.254;9.618;2023-05-10T10:15:25;15.80;99.90
15355;DHT22;7777;52.254;9.618;2023-05-10T10:17:52;15.80;99.90
15355;DHT22;7777;52.254;9.618;2023-05-10T10:20:19;15.80;99.90
15355;DHT22;7777;52.254;9.618;2023-05-10T10:22:47;15.80;99.90
15355;DHT22;7777;52.254;9.618;2023-05-10T10:25:15;15.90;99.90
15355;DHT22;7777;52.254;9.618;2023-05-10T10:30:27;15.90;99.90
15355;DHT22;7777;52.254;9.618;2023-05-10T10:36:07;16.00;99.90
15355;DHT22;7777;52.254;9.618;2023-05-10T10:38:59;16.00;99.90
15355;DHT22;7777;52.254;9.618;2023-05-10T10:41:36;16.10;99.90
15355;DHT22;7777;52.254;9.618;2023-05-10T10:49:49;16.30;99.90
15355;DHT22;7777;52.254;9.618;2023-05-10T10:52:38;16.30;99.90
15355;DHT22;7777;52.254;9.618;2023-05-10T11:00:26;16.50;99.90
15355;DHT22;7777;52.254;9.618;2023-05-10T11:03:08;16.60;99.90
15355;DHT22;7777;52.254;9.618;2023-05-10T11:05:55;16.60;99.90
15355;DHT22;7777;52.254;9.618;2023-05-10T11:13:44;16.80;99.90
15355;DHT22;7777;52.254;9.618;2023-05-10T11:16:15;16.80;99.90
15355;DHT22;7777;52.254;9.618;2023-05-10T11:19:07;16.90;99.90
15355;DHT22;7777;52.254;9.618;2023-05-10T11:21:45;16.90;99.90
15355;DHT22;7777;52.254;9.618;2023-05-10T11:24:22;17.00;99.90
15355;DHT22;7777;52.254;9.618;2023-05-10T11:26:51;17.00;99.90
15355;DHT22;7777;52.254;9.618;2023-05-10T11:29:17;17.10;99.90
15355;DHT22;7777;52.254;9.618;2023-05-10T11:31:44;17.10;99.90
15355;DHT22;7777;52.254;9.618;2023-05-10T11:34:11;17.30;99.90
15355;DHT22;7777;52.254;9.618;2023-05-10T11:36:37;17.30;99.90
15355;DHT22;7777;52.254;9.618;2023-05-10T11:39:04;17.30;99.90
15355;DHT22;7777;52.254;9.618;2023-05-10T11:41:30;17.30;99.90
15355;DHT22;7777;52.254;9.618;2023-05-10T11:43:57;17.20;99.90
15355;DHT22;7777;52.254;9.618;2023-05-10T11:46:25;17.20;99.90
15355;DHT22;7777;52.254;9.618;2023-05-10T11:48:55;17.20;99.90
15355;DHT22;7777;52.254;9.618;2023-05-10T11:51:23;17.20;99.90
15355;DHT22;7777;52.254;9.618;2023-05-10T11:53:53;17.10;99.90
15355;DHT22;7777;52.254;9.618;2023-05-10T11:56:20;17.10;99.90
15355;DHT22;7777;52.254;9.618;2023-05-10T11:58:55;17.10;99.90
15355;DHT22;7777;52.254;9.618;2023-05-10T12:01:23;17.10;99.90
15355;DHT22;7777;52.254;9.618;2023-05-10T12:03:51;17.00;99.90
15355;DHT22;7777;52.254;9.618;2023-05-10T12:06:19;17.00;99.90
15355;DHT22;7777;52.254;9.618;2023-05-10T12:08:49;17.00;99.90
15355;DHT22;7777;52.254;9.618;2023-05-10T12:11:24;17.00;99.90
15355;DHT22;7777;52.254;9.618;2023-05-10T12:13:51;17.00;99.90
15355;DHT22;7777;52.254;9.618;2023-05-10T12:16:25;17.10;99.90
15355;DHT22;7777;52.254;9.618;2023-05-10T12:18:57;17.10;99.90
15355;DHT22;7777;52.254;9.618;2023-05-10T12:21:24;17.10;99.90
15355;DHT22;7777;52.254;9.618;2023-05-10T12:23:52;17.20;99.90
15355;DHT22;7777;52.254;9.618;2023-05-10T12:26:23;17.30;99.90
15355;DHT22;7777;52.254;9.618;2023-05-10T12:29:18;17.40;99.90
15355;DHT22;7777;52.254;9.618;2023-05-10T12:32:04;17.60;99.90
15355;DHT22;7777;52.254;9.618;2023-05-10T12:34:46;17.70;99.90
15355;DHT22;7777;52.254;9.618;2023-05-10T12:37:27;17.90;99.90
15355;DHT22;7777;52.254;9.618;2023-05-10T12:39:53;18.10;99.90
15355;DHT22;7777;52.254;9.618;2023-05-10T12:42:22;18.30;99.90
15355;DHT22;7777;52.254;9.618;2023-05-10T12:44:55;18.50;99.90
15355;DHT22;7777;52.254;9.618;2023-05-10T12:47:22;18.60;99.90
15355;DHT22;7777;52.254;9.618;2023-05-10T12:49:47;18.70;99.90
15355;DHT22;7777;52.254;9.618;2023-05-10T12:52:16;18.80;99.90
15355;DHT22;7777;52.254;9.618;2023-05-10T12:54:42;18.80;99.90
15355;DHT22;7777;52.254;9.618;2023-05-10T12:57:08;18.80;99.90
15355;DHT22;7777;52.254;9.618;2023-05-10T12:59:33;18.90;99.90
15355;DHT22;7777;52.254;9.618;2023-05-10T13:01:59;18.80;99.90
15355;DHT22;7777;52.254;9.618;2023-05-10T13:04:25;18.90;99.90
15355;DHT22;7777;52.254;9.618;2023-05-10T13:06:51;19.00;99.90
15355;DHT22;7777;52.254;9.618;2023-05-10T13:09:16;19.00;99.90
15355;DHT22;7777;52.254;9.618;2023-05-10T13:11:42;19.10;99.90
15355;DHT22;7777;52.254;9.618;2023-05-10T13:14:08;19.20;99.90
15355;DHT22;7777;52.254;9.618;2023-05-10T13:16:34;19.30;99.90
15355;DHT22;7777;52.254;9.618;2023-05-10T13:19:00;19.30;99.90
15355;DHT22;7777;52.254;9.618;2023-05-10T13:21:25;19.40;99.90
15355;DHT22;7777;52.254;9.618;2023-05-10T13:23:52;19.40;99.90
15355;DHT22;7777;52.254;9.618;2023-05-10T13:26:18;19.50;99.90
15355;DHT22;7777;52.254;9.618;2023-05-10T13:28:44;19.60;99.90
15355;DHT22;7777;52.254;9.618;2023-05-10T13:31:11;19.60;99.90
15355;DHT22;7777;52.254;9.618;2023-05-10T13:33:36;19.60;99.90
15355;DHT22;7777;52.254;9.618;2023-05-10T13:36:02;19.60;99.90
15355;DHT22;7777;52.254;9.618;2023-05-10T13:38:28;19.60;99.90
15355;DHT22;7777;52.254;9.618;2023-05-10T13:40:54;19.60;99.90
15355;DHT22;7777;52.254;9.618;2023-05-10T13:43:20;19.60;99.90
15355;DHT22;7777;52.254;9.618;2023-05-10T13:45:45;19.60;99.90
15355;DHT22;7777;52.254;9.618;2023-05-10T13:48:11;19.50;99.90
15355;DHT22;7777;52.254;9.618;2023-05-10T13:50:37;19.50;99.90
15355;DHT22;7777;52.254;9.618;2023-05-10T13:53:03;19.50;99.90
15355;DHT22;7777;52.254;9.618;2023-05-10T13:55:30;19.50;99.90
15355;DHT22;7777;52.254;9.618;2023-05-10T13:57:56;19.50;99.90
15355;DHT22;7777;52.254;9.618;2023-05-10T14:00:22;19.50;99.90
15355;DHT22;7777;52.254;9.618;2023-05-10T14:02:50;19.50;99.90
15355;DHT22;7777;52.254;9.618;2023-05-10T14:05:16;19.50;99.90
15355;DHT22;7777;52.254;9.618;2023-05-10T14:07:42;19.40;99.90
15355;DHT22;7777;52.254;9.618;2023-05-10T14:10:08;19.40;99.90
15355;DHT22;7777;52.254;9.618;2023-05-10T14:12:34;19.40;99.90
15355;DHT22;7777;52.254;9.618;2023-05-10T14:14:59;19.50;99.90
15355;DHT22;7777;52.254;9.618;2023-05-10T14:17:25;19.50;99.90
15355;DHT22;7777;52.254;9.618;2023-05-10T14:19:51;19.40;99.90
15355;DHT22;7777;52.254;9.618;2023-05-10T14:22:21;19.40;99.90
15355;DHT22;7777;52.254;9.618;2023-05-10T14:24:47;19.60;99.90
15355;DHT22;7777;52.254;9.618;2023-05-10T14:27:13;19.60;99.90
15355;DHT22;7777;52.254;9.618;2023-05-10T14:29:38;19.70;99.90
15355;DHT22;7777;52.254;9.618;2023-05-10T14:32:04;19.70;99.90
15355;DHT22;7777;52.254;9.618;2023-05-10T14:34:30;19.70;99.90
15355;DHT22;7777;52.254;9.618;2023-05-10T14:36:56;19.50;99.90
15355;DHT22;7777;52.254;9.618;2023-05-10T14:39:22;19.50;99.90
15355;DHT22;7777;52.254;9.618;2023-05-10T14:41:48;19.60;99.90
15355;DHT22;7777;52.254;9.618;2023-05-10T14:44:14;19.50;99.90
15355;DHT22;7777;52.254;9.618;2023-05-10T14:46:40;19.50;99.90
15355;DHT22;7777;52.254;9.618;2023-05-10T14:49:07;19.50;99.90
15355;DHT22;7777;52.254;9.618;2023-05-10T14:51:33;19.50;99.90
15355;DHT22;7777;52.254;9.618;2023-05-10T14:53:59;19.40;99.90
15355;DHT22;7777;52.254;9.618;2023-05-10T14:56:25;19.40;99.90
15355;DHT22;7777;52.254;9.618;2023-05-10T14:58:51;19.30;99.90
15355;DHT22;7777;52.254;9.618;2023-05-10T15:01:17;19.30;99.90
15355;DHT22;7777;52.254;9.618;2023-05-10T15:03:42;19.20;99.90
15355;DHT22;7777;52.254;9.618;2023-05-10T15:06:09;19.10;99.90
15355;DHT22;7777;52.254;9.618;2023-05-10T15:08:34;19.10;99.90
15355;DHT22;7777;52.254;9.618;2023-05-10T15:11:00;19.10;99.90
15355;DHT22;7777;52.254;9.618;2023-05-10T15:13:26;18.90;99.90
15355;DHT22;7777;52.254;9.618;2023-05-10T15:15:51;18.80;99.90
15355;DHT22;7777;52.254;9.618;2023-05-10T15:18:17;18.70;99.90
15355;DHT22;7777;52.254;9.618;2023-05-10T15:20:45;18.60;99.90
15355;DHT22;7777;52.254;9.618;2023-05-10T15:23:11;18.60;99.90
15355;DHT22;7777;52.254;9.618;2023-05-10T15:25:37;18.50;99.90
15355;DHT22;7777;52.254;9.618;2023-05-10T15:28:14;18.40;99.90
15355;DHT22;7777;52.254;9.618;2023-05-10T15:30:47;18.30;99.90
15355;DHT22;7777;52.254;9.618;2023-05-10T15:33:13;18.20;99.90
15355;DHT22;7777;52.254;9.618;2023-05-10T15:35:39;18.10;99.90
15355;DHT22;7777;52.254;9.618;2023-05-10T15:38:05;18.00;99.90
15355;DHT22;7777;52.254;9.618;2023-05-10T15:40:31;17.90;99.90
15355;DHT22;7777;52.254;9.618;2023-05-10T15:42:57;17.80;99.90
15355;DHT22;7777;52.254;9.618;2023-05-10T15:45:23;17.80;99.90
15355;DHT22;7777;52.254;9.618;2023-05-10T15:47:48;17.70;99.90
15355;DHT22;7777;52.254;9.618;2023-05-10T15:50:15;17.60;99.90
15355;DHT22;7777;52.254;9.618;2023-05-10T15:52:41;17.50;99.90
15355;DHT22;7777;52.254;9.618;2023-05-10T15:55:08;17.50;99.90
15355;DHT22;7777;52.254;9.618;2023-05-10T15:57:41;17.50;99.90
15355;DHT22;7777;52.254;9.618;2023-05-10T16:00:12;17.40;99.90
15355;DHT22;7777;52.254;9.618;2023-05-10T16:02:40;17.30;99.90
15355;DHT22;7777;52.254;9.618;2023-05-10T16:05:06;17.30;99.90
15355;DHT22;7777;52.254;9.618;2023-05-10T16:07:33;17.30;99.90
15355;DHT22;7777;52.254;9.618;2023-05-10T16:09:59;17.20;99.90
15355;DHT22;7777;52.254;9.618;2023-05-10T16:12:29;17.20;99.90
15355;DHT22;7777;52.254;9.618;2023-05-10T16:14:55;17.20;99.90
15355;DHT22;7777;52.254;9.618;2023-05-10T16:17:22;17.20;99.90
15355;DHT22;7777;52.254;9.618;2023-05-10T16:19:48;17.20;99.90
15355;DHT22;7777;52.254;9.618;2023-05-10T16:22:14;17.20;99.90
15355;DHT22;7777;52.254;9.618;2023-05-10T16:24:40;17.10;99.90
15355;DHT22;7777;52.254;9.618;2023-05-10T16:27:07;17.10;99.90
15355;DHT22;7777;52.254;9.618;2023-05-10T16:29:33;17.10;99.90
15355;DHT22;7777;52.254;9.618;2023-05-10T16:31:59;17.10;99.90
15355;DHT22;7777;52.254;9.618;2023-05-10T16:34:24;17.00;99.90